sensor_id;sensor_type;location;lat;lon;timestamp;P1;durP1;ratioP1;P2;durP2;ratioP2
6300;SDS011;3183;51.010;6.898;2022-10-13T00:01:58;33.23;;;13.57;;
6300;SDS011;3183;51.010;6.898;2022-10-13T00:04:25;31.03;;;14.40;;
6300;SDS011;3183;51.010;6.898;2022-10-13T00:06:53;34.00;;;13.60;;
6300;SDS011;3183;51.010;6.898;2022-10-13T00:09:20;26.30;;;13.17;;
6300;SDS011;3183;51.010;6.898;2022-10-13T00:11:47;23.53;;;13.10;;
6300;SDS011;3183;51.010;6.898;2022-10-13T00:14:14;28.53;;;13.87;;
6300;SDS011;3183;51.010;6.898;2022-10-13T00:16:43;25.50;;;13.90;;
6300;SDS011;3183;51.010;6.898;2022-10-13T00:19:10;24.53;;;13.33;;
6300;SDS011;3183;51.010;6.898;2022-10-13T00:21:37;25.93;;;13.40;;
6300;SDS011;3183;51.010;6.898;2022-10-13T00:24:04;27.37;;;13.67;;
6300;SDS011;3183;51.010;6.898;2022-10-13T00:26:31;25.20;;;13.53;;
6300;SDS011;3183;51.010;6.898;2022-10-13T00:28:58;24.00;;;12.47;;
6300;SDS011;3183;51.010;6.898;2022-10-13T00:31:27;31.80;;;13.07;;
6300;SDS011;3183;51.010;6.898;2022-10-13T00:33:56;23.50;;;12.67;;
6300;SDS011;3183;51.010;6.898;2022-10-13T00:36:24;27.93;;;12.83;;
6300;SDS011;3183;51.010;6.898;2022-10-13T00:38:51;35.63;;;12.43;;
6300;SDS011;3183;51.010;6.898;2022-10-13T00:41:18;28.50;;;14.30;;
6300;SDS011;3183;51.010;6.898;2022-10-13T00:43:47;26.50;;;13.30;;
6300;SDS011;3183;51.010;6.898;2022-10-13T00:46:14;20.20;;;12.40;;
6300;SDS011;3183;51.010;6.898;2022-10-13T00:48:41;25.70;;;13.07;;
6300;SDS011;3183;51.010;6.898;2022-10-13T00:51:10;22.37;;;12.97;;
6300;SDS011;3183;51.010;6.898;2022-10-13T00:53:38;26.63;;;13.20;;
6300;SDS011;3183;51.010;6.898;2022-10-13T00:56:06;30.93;;;13.97;;
6300;SDS011;3183;51.010;6.898;2022-10-13T00:58:35;23.93;;;12.60;;
6300;SDS011;3183;51.010;6.898;2022-10-13T01:01:03;27.40;;;12.23;;
6300;SDS011;3183;51.010;6.898;2022-10-13T01:03:31;23.03;;;13.30;;
6300;SDS011;3183;51.010;6.898;2022-10-13T01:05:59;25.40;;;13.80;;
6300;SDS011;3183;51.010;6.898;2022-10-13T01:08:28;27.43;;;12.07;;
6300;SDS011;3183;51.010;6.898;2022-10-13T01:10:57;20.40;;;12.27;;
6300;SDS011;3183;51.010;6.898;2022-10-13T01:13:29;20.60;;;13.00;;
6300;SDS011;3183;51.010;6.898;2022-10-13T01:15:59;30.00;;;13.83;;
6300;SDS011;3183;51.010;6.898;2022-10-13T01:18:29;35.23;;;13.70;;
6300;SDS011;3183;51.010;6.898;2022-10-13T01:21:04;27.27;;;14.33;;
6300;SDS011;3183;51.010;6.898;2022-10-13T01:23:39;30.63;;;13.67;;
6300;SDS011;3183;51.010;6.898;2022-10-13T01:26:19;30.10;;;12.90;;
6300;SDS011;3183;51.010;6.898;2022-10-13T01:28:54;26.37;;;13.20;;
6300;SDS011;3183;51.010;6.898;2022-10-13T01:31:29;27.07;;;15.27;;
6300;SDS011;3183;51.010;6.898;2022-10-13T01:34:01;33.47;;;14.70;;
6300;SDS011;3183;51.010;6.898;2022-10-13T01:36:36;24.73;;;13.13;;
6300;SDS011;3183;51.010;6.898;2022-10-13T01:39:04;28.30;;;13.63;;
6300;SDS011;3183;51.010;6.898;2022-10-13T01:41:34;35.30;;;13.57;;
6300;SDS011;3183;51.010;6.898;2022-10-13T01:44:04;25.50;;;13.73;;
6300;SDS011;3183;51.010;6.898;2022-10-13T01:46:38;25.23;;;14.10;;
6300;SDS011;3183;51.010;6.898;2022-10-13T01:49:06;26.30;;;13.60;;
6300;SDS011;3183;51.010;6.898;2022-10-13T01:51:35;22.93;;;13.80;;
6300;SDS011;3183;51.010;6.898;2022-10-13T01:54:02;31.43;;;13.60;;
6300;SDS011;3183;51.010;6.898;2022-10-13T01:56:30;19.90;;;12.47;;
6300;SDS011;3183;51.010;6.898;2022-10-13T01:58:57;24.63;;;13.00;;
6300;SDS011;3183;51.010;6.898;2022-10-13T02:01:31;28.53;;;13.67;;
6300;SDS011;3183;51.010;6.898;2022-10-13T02:04:05;27.13;;;13.00;;
6300;SDS011;3183;51.010;6.898;2022-10-13T02:06:37;27.77;;;13.00;;
6300;SDS011;3183;51.010;6.898;2022-10-13T02:09:07;26.20;;;13.27;;
6300;SDS011;3183;51.010;6.898;2022-10-13T02:11:36;21.13;;;12.13;;
6300;SDS011;3183;51.010;6.898;2022-10-13T02:14:06;25.80;;;13.80;;
6300;SDS011;3183;51.010;6.898;2022-10-13T02:16:36;26.43;;;12.00;;
6300;SDS011;3183;51.010;6.898;2022-10-13T02:19:05;27.50;;;12.97;;
6300;SDS011;3183;51.010;6.898;2022-10-13T02:21:34;23.70;;;13.10;;
6300;SDS011;3183;51.010;6.898;2022-10-13T02:24:01;25.13;;;13.07;;
6300;SDS011;3183;51.010;6.898;2022-10-13T02:26:29;25.13;;;13.10;;
6300;SDS011;3183;51.010;6.898;2022-10-13T02:28:56;24.30;;;12.97;;
6300;SDS011;3183;51.010;6.898;2022-10-13T02:31:23;23.10;;;13.20;;
6300;SDS011;3183;51.010;6.898;2022-10-13T02:33:51;23.63;;;12.90;;
6300;SDS011;3183;51.010;6.898;2022-10-13T02:36:19;33.63;;;14.30;;
6300;SDS011;3183;51.010;6.898;2022-10-13T02:38:46;26.27;;;13.10;;
6300;SDS011;3183;51.010;6.898;2022-10-13T02:41:14;32.60;;;13.53;;
6300;SDS011;3183;51.010;6.898;2022-10-13T02:43:41;31.07;;;14.03;;
6300;SDS011;3183;51.010;6.898;2022-10-13T02:46:08;23.37;;;13.30;;
6300;SDS011;3183;51.010;6.898;2022-10-13T02:48:35;23.93;;;13.90;;
6300;SDS011;3183;51.010;6.898;2022-10-13T02:51:02;25.57;;;14.10;;
6300;SDS011;3183;51.010;6.898;2022-10-13T02:53:31;24.50;;;12.53;;
6300;SDS011;3183;51.010;6.898;2022-10-13T02:55:58;29.23;;;13.90;;
6300;SDS011;3183;51.010;6.898;2022-10-13T02:58:25;26.57;;;13.33;;
6300;SDS011;3183;51.010;6.898;2022-10-13T03:00:52;25.93;;;13.80;;
6300;SDS011;3183;51.010;6.898;2022-10-13T03:03:19;26.30;;;13.27;;
6300;SDS011;3183;51.010;6.898;2022-10-13T03:05:46;27.70;;;13.90;;
6300;SDS011;3183;51.010;6.898;2022-10-13T03:08:13;24.47;;;12.67;;
6300;SDS011;3183;51.010;6.898;2022-10-13T03:10:42;24.57;;;13.10;;
6300;SDS011;3183;51.010;6.898;2022-10-13T03:13:09;32.03;;;14.67;;
6300;SDS011;3183;51.010;6.898;2022-10-13T03:15:36;26.03;;;13.20;;
6300;SDS011;3183;51.010;6.898;2022-10-13T03:18:03;31.03;;;13.50;;
6300;SDS011;3183;51.010;6.898;2022-10-13T03:20:30;27.73;;;13.80;;
6300;SDS011;3183;51.010;6.898;2022-10-13T03:22:57;28.33;;;13.70;;
6300;SDS011;3183;51.010;6.898;2022-10-13T03:25:24;27.40;;;14.30;;
6300;SDS011;3183;51.010;6.898;2022-10-13T03:27:54;27.10;;;12.70;;
6300;SDS011;3183;51.010;6.898;2022-10-13T03:30:21;33.33;;;14.60;;
6300;SDS011;3183;51.010;6.898;2022-10-13T03:32:48;26.40;;;14.00;;
6300;SDS011;3183;51.010;6.898;2022-10-13T03:35:16;35.43;;;13.30;;
6300;SDS011;3183;51.010;6.898;2022-10-13T03:37:43;27.90;;;13.90;;
6300;SDS011;3183;51.010;6.898;2022-10-13T03:40:10;24.87;;;13.80;;
6300;SDS011;3183;51.010;6.898;2022-10-13T03:42:38;29.90;;;15.67;;
6300;SDS011;3183;51.010;6.898;2022-10-13T03:45:07;30.57;;;14.90;;
6300;SDS011;3183;51.010;6.898;2022-10-13T03:47:34;36.03;;;14.90;;
6300;SDS011;3183;51.010;6.898;2022-10-13T03:50:02;29.13;;;14.60;;
6300;SDS011;3183;51.010;6.898;2022-10-13T03:52:29;28.97;;;13.70;;
6300;SDS011;3183;51.010;6.898;2022-10-13T03:54:57;33.63;;;14.57;;
6300;SDS011;3183;51.010;6.898;2022-10-13T03:57:25;31.30;;;15.97;;
6300;SDS011;3183;51.010;6.898;2022-10-13T03:59:52;31.27;;;15.23;;
6300;SDS011;3183;51.010;6.898;2022-10-13T04:02:21;30.63;;;15.00;;
6300;SDS011;3183;51.010;6.898;2022-10-13T04:04:48;31.03;;;13.70;;
6300;SDS011;3183;51.010;6.898;2022-10-13T04:07:16;30.60;;;15.63;;
6300;SDS011;3183;51.010;6.898;2022-10-13T04:09:43;29.23;;;14.80;;
6300;SDS011;3183;51.010;6.898;2022-10-13T04:12:10;34.27;;;13.90;;
6300;SDS011;3183;51.010;6.898;2022-10-13T04:14:37;35.37;;;15.23;;
6300;SDS011;3183;51.010;6.898;2022-10-13T04:17:04;29.67;;;15.03;;
6300;SDS011;3183;51.010;6.898;2022-10-13T04:19:33;33.37;;;15.60;;
6300;SDS011;3183;51.010;6.898;2022-10-13T04:22:00;30.40;;;14.63;;
6300;SDS011;3183;51.010;6.898;2022-10-13T04:24:27;34.63;;;16.03;;
6300;SDS011;3183;51.010;6.898;2022-10-13T04:26:54;28.37;;;14.47;;
6300;SDS011;3183;51.010;6.898;2022-10-13T04:29:22;28.20;;;13.90;;
6300;SDS011;3183;51.010;6.898;2022-10-13T04:31:49;29.17;;;14.07;;
6300;SDS011;3183;51.010;6.898;2022-10-13T04:34:16;33.93;;;15.43;;
6300;SDS011;3183;51.010;6.898;2022-10-13T04:36:46;27.03;;;14.33;;
6300;SDS011;3183;51.010;6.898;2022-10-13T04:39:15;27.87;;;14.10;;
6300;SDS011;3183;51.010;6.898;2022-10-13T04:41:43;27.30;;;13.33;;
6300;SDS011;3183;51.010;6.898;2022-10-13T04:44:10;31.07;;;14.67;;
6300;SDS011;3183;51.010;6.898;2022-10-13T04:46:37;27.00;;;14.47;;
6300;SDS011;3183;51.010;6.898;2022-10-13T04:49:04;24.63;;;13.30;;
6300;SDS011;3183;51.010;6.898;2022-10-13T04:51:31;28.37;;;14.57;;
6300;SDS011;3183;51.010;6.898;2022-10-13T04:54:00;21.20;;;12.57;;
6300;SDS011;3183;51.010;6.898;2022-10-13T04:56:29;33.13;;;13.97;;
6300;SDS011;3183;51.010;6.898;2022-10-13T04:58:56;26.83;;;14.00;;
6300;SDS011;3183;51.010;6.898;2022-10-13T05:01:24;28.03;;;13.17;;
6300;SDS011;3183;51.010;6.898;2022-10-13T05:03:52;20.47;;;11.60;;
6300;SDS011;3183;51.010;6.898;2022-10-13T05:06:21;24.53;;;12.80;;
6300;SDS011;3183;51.010;6.898;2022-10-13T05:08:48;22.67;;;13.23;;
6300;SDS011;3183;51.010;6.898;2022-10-13T05:11:16;29.90;;;14.33;;
6300;SDS011;3183;51.010;6.898;2022-10-13T05:13:44;23.60;;;12.60;;
6300;SDS011;3183;51.010;6.898;2022-10-13T05:16:12;34.67;;;13.50;;
6300;SDS011;3183;51.010;6.898;2022-10-13T05:18:40;31.53;;;14.50;;
6300;SDS011;3183;51.010;6.898;2022-10-13T05:21:07;23.53;;;12.67;;
6300;SDS011;3183;51.010;6.898;2022-10-13T05:23:35;20.10;;;11.40;;
6300;SDS011;3183;51.010;6.898;2022-10-13T05:26:03;25.23;;;12.00;;
6300;SDS011;3183;51.010;6.898;2022-10-13T05:28:32;29.97;;;14.43;;
6300;SDS011;3183;51.010;6.898;2022-10-13T05:31:06;28.83;;;12.50;;
6300;SDS011;3183;51.010;6.898;2022-10-13T05:33:33;24.13;;;12.37;;
6300;SDS011;3183;51.010;6.898;2022-10-13T05:36:02;28.70;;;12.97;;
6300;SDS011;3183;51.010;6.898;2022-10-13T05:38:29;30.87;;;13.00;;
6300;SDS011;3183;51.010;6.898;2022-10-13T05:41:00;29.43;;;13.30;;
6300;SDS011;3183;51.010;6.898;2022-10-13T05:43:27;28.37;;;13.40;;
6300;SDS011;3183;51.010;6.898;2022-10-13T05:45:55;31.40;;;12.93;;
6300;SDS011;3183;51.010;6.898;2022-10-13T05:48:23;30.20;;;15.17;;
6300;SDS011;3183;51.010;6.898;2022-10-13T05:50:50;30.17;;;13.50;;
6300;SDS011;3183;51.010;6.898;2022-10-13T05:53:17;25.97;;;11.77;;
6300;SDS011;3183;51.010;6.898;2022-10-13T05:55:44;28.00;;;12.13;;
6300;SDS011;3183;51.010;6.898;2022-10-13T05:58:11;20.90;;;12.87;;
6300;SDS011;3183;51.010;6.898;2022-10-13T06:00:39;29.40;;;12.17;;
6300;SDS011;3183;51.010;6.898;2022-10-13T06:03:09;24.47;;;11.90;;
6300;SDS011;3183;51.010;6.898;2022-10-13T06:05:38;20.83;;;12.00;;
6300;SDS011;3183;51.010;6.898;2022-10-13T06:08:07;28.87;;;12.47;;
6300;SDS011;3183;51.010;6.898;2022-10-13T06:10:35;27.33;;;13.07;;
6300;SDS011;3183;51.010;6.898;2022-10-13T06:13:02;30.17;;;11.97;;
6300;SDS011;3183;51.010;6.898;2022-10-13T06:15:29;22.00;;;11.70;;
6300;SDS011;3183;51.010;6.898;2022-10-13T06:17:56;31.60;;;12.23;;
6300;SDS011;3183;51.010;6.898;2022-10-13T06:20:25;25.00;;;12.27;;
6300;SDS011;3183;51.010;6.898;2022-10-13T06:22:52;25.90;;;12.40;;
6300;SDS011;3183;51.010;6.898;2022-10-13T06:25:20;21.93;;;11.20;;
6300;SDS011;3183;51.010;6.898;2022-10-13T06:27:47;30.20;;;12.83;;
6300;SDS011;3183;51.010;6.898;2022-10-13T06:30:14;23.37;;;12.00;;
6300;SDS011;3183;51.010;6.898;2022-10-13T06:32:41;24.77;;;12.37;;
6300;SDS011;3183;51.010;6.898;2022-10-13T06:35:08;22.87;;;12.17;;
6300;SDS011;3183;51.010;6.898;2022-10-13T06:37:37;23.37;;;11.50;;
6300;SDS011;3183;51.010;6.898;2022-10-13T06:40:04;22.77;;;12.33;;
6300;SDS011;3183;51.010;6.898;2022-10-13T06:42:32;15.83;;;10.30;;
6300;SDS011;3183;51.010;6.898;2022-10-13T06:44:59;25.30;;;11.73;;
6300;SDS011;3183;51.010;6.898;2022-10-13T06:47:26;20.83;;;10.80;;
6300;SDS011;3183;51.010;6.898;2022-10-13T06:49:53;20.50;;;11.33;;
6300;SDS011;3183;51.010;6.898;2022-10-13T06:52:20;21.37;;;11.00;;
6300;SDS011;3183;51.010;6.898;2022-10-13T06:54:49;22.07;;;11.40;;
6300;SDS011;3183;51.010;6.898;2022-10-13T06:57:16;31.17;;;11.20;;
6300;SDS011;3183;51.010;6.898;2022-10-13T06:59:43;21.87;;;10.63;;
6300;SDS011;3183;51.010;6.898;2022-10-13T07:02:10;22.20;;;10.07;;
6300;SDS011;3183;51.010;6.898;2022-10-13T07:04:37;25.80;;;11.83;;
6300;SDS011;3183;51.010;6.898;2022-10-13T07:07:04;21.93;;;10.40;;
6300;SDS011;3183;51.010;6.898;2022-10-13T07:09:31;18.20;;;10.20;;
6300;SDS011;3183;51.010;6.898;2022-10-13T07:12:00;20.53;;;11.03;;
6300;SDS011;3183;51.010;6.898;2022-10-13T07:14:27;17.10;;;9.60;;
6300;SDS011;3183;51.010;6.898;2022-10-13T07:16:54;18.20;;;9.77;;
6300;SDS011;3183;51.010;6.898;2022-10-13T07:19:21;18.60;;;9.83;;
6300;SDS011;3183;51.010;6.898;2022-10-13T07:21:48;18.10;;;9.83;;
6300;SDS011;3183;51.010;6.898;2022-10-13T07:24:15;19.70;;;10.33;;
6300;SDS011;3183;51.010;6.898;2022-10-13T07:26:43;21.17;;;10.90;;
6300;SDS011;3183;51.010;6.898;2022-10-13T07:29:11;17.10;;;9.50;;
6300;SDS011;3183;51.010;6.898;2022-10-13T07:31:38;18.33;;;10.63;;
6300;SDS011;3183;51.010;6.898;2022-10-13T07:34:05;25.17;;;9.87;;
6300;SDS011;3183;51.010;6.898;2022-10-13T07:36:33;23.00;;;10.20;;
6300;SDS011;3183;51.010;6.898;2022-10-13T07:39:01;20.80;;;10.87;;
6300;SDS011;3183;51.010;6.898;2022-10-13T07:41:28;20.70;;;10.63;;
6300;SDS011;3183;51.010;6.898;2022-10-13T07:43:55;24.87;;;9.90;;
6300;SDS011;3183;51.010;6.898;2022-10-13T07:46:24;19.07;;;9.50;;
6300;SDS011;3183;51.010;6.898;2022-10-13T07:48:52;17.53;;;9.80;;
6300;SDS011;3183;51.010;6.898;2022-10-13T07:51:19;22.23;;;10.33;;
6300;SDS011;3183;51.010;6.898;2022-10-13T07:53:47;22.77;;;9.77;;
6300;SDS011;3183;51.010;6.898;2022-10-13T07:56:14;17.67;;;8.93;;
6300;SDS011;3183;51.010;6.898;2022-10-13T07:58:42;18.93;;;10.50;;
6300;SDS011;3183;51.010;6.898;2022-10-13T08:01:10;18.23;;;9.73;;
6300;SDS011;3183;51.010;6.898;2022-10-13T08:03:39;18.03;;;9.90;;
6300;SDS011;3183;51.010;6.898;2022-10-13T08:06:06;23.03;;;10.57;;
6300;SDS011;3183;51.010;6.898;2022-10-13T08:08:34;18.50;;;9.97;;
6300;SDS011;3183;51.010;6.898;2022-10-13T08:11:01;20.23;;;9.90;;
6300;SDS011;3183;51.010;6.898;2022-10-13T08:13:28;18.23;;;10.10;;
6300;SDS011;3183;51.010;6.898;2022-10-13T08:15:58;18.50;;;8.90;;
6300;SDS011;3183;51.010;6.898;2022-10-13T08:18:25;15.70;;;9.20;;
6300;SDS011;3183;51.010;6.898;2022-10-13T08:20:54;23.60;;;9.70;;
6300;SDS011;3183;51.010;6.898;2022-10-13T08:23:21;23.63;;;9.77;;
6300;SDS011;3183;51.010;6.898;2022-10-13T08:25:48;24.23;;;10.60;;
6300;SDS011;3183;51.010;6.898;2022-10-13T08:28:16;20.70;;;9.33;;
6300;SDS011;3183;51.010;6.898;2022-10-13T08:30:44;23.33;;;9.47;;
6300;SDS011;3183;51.010;6.898;2022-10-13T08:33:11;17.87;;;9.63;;
6300;SDS011;3183;51.010;6.898;2022-10-13T08:35:38;18.70;;;9.00;;
6300;SDS011;3183;51.010;6.898;2022-10-13T08:38:08;20.37;;;10.07;;
6300;SDS011;3183;51.010;6.898;2022-10-13T08:40:35;19.47;;;9.80;;
6300;SDS011;3183;51.010;6.898;2022-10-13T08:43:04;15.27;;;9.93;;
6300;SDS011;3183;51.010;6.898;2022-10-13T08:45:31;23.50;;;9.87;;
6300;SDS011;3183;51.010;6.898;2022-10-13T08:47:59;24.00;;;10.77;;
6300;SDS011;3183;51.010;6.898;2022-10-13T08:50:28;19.17;;;10.80;;
6300;SDS011;3183;51.010;6.898;2022-10-13T08:52:56;18.77;;;10.17;;
6300;SDS011;3183;51.010;6.898;2022-10-13T08:55:27;19.50;;;10.50;;
6300;SDS011;3183;51.010;6.898;2022-10-13T08:57:55;21.03;;;9.50;;
6300;SDS011;3183;51.010;6.898;2022-10-13T09:00:23;15.90;;;10.17;;
6300;SDS011;3183;51.010;6.898;2022-10-13T09:02:50;17.43;;;9.27;;
6300;SDS011;3183;51.010;6.898;2022-10-13T09:05:19;19.10;;;9.20;;
6300;SDS011;3183;51.010;6.898;2022-10-13T09:07:48;21.07;;;10.10;;
6300;SDS011;3183;51.010;6.898;2022-10-13T09:10:17;18.13;;;9.83;;
6300;SDS011;3183;51.010;6.898;2022-10-13T09:12:45;17.60;;;8.67;;
6300;SDS011;3183;51.010;6.898;2022-10-13T09:15:13;21.70;;;9.30;;
6300;SDS011;3183;51.010;6.898;2022-10-13T09:17:42;16.07;;;9.97;;
6300;SDS011;3183;51.010;6.898;2022-10-13T09:20:15;14.10;;;8.40;;
6300;SDS011;3183;51.010;6.898;2022-10-13T09:22:44;22.13;;;9.40;;
6300;SDS011;3183;51.010;6.898;2022-10-13T09:25:16;20.13;;;8.97;;
6300;SDS011;3183;51.010;6.898;2022-10-13T09:27:44;20.70;;;8.50;;
6300;SDS011;3183;51.010;6.898;2022-10-13T09:30:30;28.33;;;9.33;;
6300;SDS011;3183;51.010;6.898;2022-10-13T09:33:19;15.57;;;8.67;;
6300;SDS011;3183;51.010;6.898;2022-10-13T09:35:48;24.67;;;9.87;;
6300;SDS011;3183;51.010;6.898;2022-10-13T09:38:16;27.70;;;10.27;;
6300;SDS011;3183;51.010;6.898;2022-10-13T09:40:54;16.67;;;8.93;;
6300;SDS011;3183;51.010;6.898;2022-10-13T09:43:24;15.30;;;9.00;;
6300;SDS011;3183;51.010;6.898;2022-10-13T09:45:55;19.70;;;11.20;;
6300;SDS011;3183;51.010;6.898;2022-10-13T09:48:23;21.73;;;9.37;;
6300;SDS011;3183;51.010;6.898;2022-10-13T09:50:52;13.77;;;8.70;;
6300;SDS011;3183;51.010;6.898;2022-10-13T09:53:21;18.10;;;9.40;;
6300;SDS011;3183;51.010;6.898;2022-10-13T09:55:50;24.07;;;9.80;;
6300;SDS011;3183;51.010;6.898;2022-10-13T09:58:32;20.60;;;8.90;;
6300;SDS011;3183;51.010;6.898;2022-10-13T10:01:02;17.90;;;9.83;;
6300;SDS011;3183;51.010;6.898;2022-10-13T10:03:31;22.37;;;9.83;;
6300;SDS011;3183;51.010;6.898;2022-10-13T10:05:59;17.13;;;7.97;;
6300;SDS011;3183;51.010;6.898;2022-10-13T10:08:28;15.03;;;8.60;;
6300;SDS011;3183;51.010;6.898;2022-10-13T10:10:58;18.57;;;9.00;;
6300;SDS011;3183;51.010;6.898;2022-10-13T10:13:26;26.37;;;10.27;;
6300;SDS011;3183;51.010;6.898;2022-10-13T10:15:55;15.73;;;8.80;;
6300;SDS011;3183;51.010;6.898;2022-10-13T10:18:27;27.37;;;8.50;;
6300;SDS011;3183;51.010;6.898;2022-10-13T10:21:01;17.77;;;8.27;;
6300;SDS011;3183;51.010;6.898;2022-10-13T10:23:35;24.43;;;9.30;;
6300;SDS011;3183;51.010;6.898;2022-10-13T10:26:07;19.30;;;8.93;;
6300;SDS011;3183;51.010;6.898;2022-10-13T10:28:42;21.53;;;8.47;;
6300;SDS011;3183;51.010;6.898;2022-10-13T10:31:18;21.70;;;10.37;;
6300;SDS011;3183;51.010;6.898;2022-10-13T10:33:50;16.93;;;8.43;;
6300;SDS011;3183;51.010;6.898;2022-10-13T10:36:22;18.43;;;9.27;;
6300;SDS011;3183;51.010;6.898;2022-10-13T10:38:51;23.03;;;8.73;;
6300;SDS011;3183;51.010;6.898;2022-10-13T10:41:23;17.50;;;8.97;;
6300;SDS011;3183;51.010;6.898;2022-10-13T10:43:52;19.53;;;8.70;;
6300;SDS011;3183;51.010;6.898;2022-10-13T10:46:22;17.83;;;7.77;;
6300;SDS011;3183;51.010;6.898;2022-10-13T10:48:52;13.17;;;8.20;;
6300;SDS011;3183;51.010;6.898;2022-10-13T10:51:22;21.90;;;8.13;;
6300;SDS011;3183;51.010;6.898;2022-10-13T10:53:55;21.97;;;8.10;;
6300;SDS011;3183;51.010;6.898;2022-10-13T10:56:26;13.70;;;8.27;;
6300;SDS011;3183;51.010;6.898;2022-10-13T10:58:57;16.50;;;8.47;;
6300;SDS011;3183;51.010;6.898;2022-10-13T11:01:31;20.77;;;8.93;;
6300;SDS011;3183;51.010;6.898;2022-10-13T11:04:07;20.30;;;8.30;;
6300;SDS011;3183;51.010;6.898;2022-10-13T11:06:44;24.90;;;8.43;;
6300;SDS011;3183;51.010;6.898;2022-10-13T11:09:12;16.20;;;8.80;;
6300;SDS011;3183;51.010;6.898;2022-10-13T11:11:39;13.80;;;7.83;;
6300;SDS011;3183;51.010;6.898;2022-10-13T11:14:21;18.27;;;8.77;;
6300;SDS011;3183;51.010;6.898;2022-10-13T11:16:58;20.77;;;7.90;;
6300;SDS011;3183;51.010;6.898;2022-10-13T11:19:29;27.93;;;8.17;;
6300;SDS011;3183;51.010;6.898;2022-10-13T11:24:59;20.63;;;9.30;;
6300;SDS011;3183;51.010;6.898;2022-10-13T11:27:27;12.97;;;7.30;;
6300;SDS011;3183;51.010;6.898;2022-10-13T11:30:03;12.67;;;8.10;;
6300;SDS011;3183;51.010;6.898;2022-10-13T11:32:43;19.53;;;8.83;;
6300;SDS011;3183;51.010;6.898;2022-10-13T11:35:21;20.93;;;7.10;;
6300;SDS011;3183;51.010;6.898;2022-10-13T11:37:51;14.80;;;8.33;;
6300;SDS011;3183;51.010;6.898;2022-10-13T11:40:22;15.07;;;8.70;;
6300;SDS011;3183;51.010;6.898;2022-10-13T11:42:52;25.53;;;10.13;;
6300;SDS011;3183;51.010;6.898;2022-10-13T11:45:25;17.60;;;7.83;;
6300;SDS011;3183;51.010;6.898;2022-10-13T11:48:02;21.70;;;8.40;;
6300;SDS011;3183;51.010;6.898;2022-10-13T11:50:35;13.50;;;7.60;;
6300;SDS011;3183;51.010;6.898;2022-10-13T11:53:09;20.30;;;9.10;;
6300;SDS011;3183;51.010;6.898;2022-10-13T11:55:41;18.37;;;7.57;;
6300;SDS011;3183;51.010;6.898;2022-10-13T11:58:12;14.63;;;6.10;;
6300;SDS011;3183;51.010;6.898;2022-10-13T12:00:48;8.47;;;5.00;;
6300;SDS011;3183;51.010;6.898;2022-10-13T12:03:18;8.97;;;5.90;;
6300;SDS011;3183;51.010;6.898;2022-10-13T12:05:47;17.70;;;5.33;;
6300;SDS011;3183;51.010;6.898;2022-10-13T12:08:16;12.73;;;5.40;;
6300;SDS011;3183;51.010;6.898;2022-10-13T12:10:44;8.40;;;5.00;;
6300;SDS011;3183;51.010;6.898;2022-10-13T12:13:18;12.33;;;5.50;;
6300;SDS011;3183;51.010;6.898;2022-10-13T12:15:46;10.00;;;5.40;;
6300;SDS011;3183;51.010;6.898;2022-10-13T12:18:20;11.70;;;5.80;;
6300;SDS011;3183;51.010;6.898;2022-10-13T12:20:53;17.27;;;6.30;;
6300;SDS011;3183;51.010;6.898;2022-10-13T12:23:21;10.80;;;5.37;;
6300;SDS011;3183;51.010;6.898;2022-10-13T12:25:49;13.37;;;6.00;;
6300;SDS011;3183;51.010;6.898;2022-10-13T12:28:21;14.30;;;5.20;;
6300;SDS011;3183;51.010;6.898;2022-10-13T12:30:50;13.73;;;5.87;;
6300;SDS011;3183;51.010;6.898;2022-10-13T12:33:19;11.70;;;5.00;;
6300;SDS011;3183;51.010;6.898;2022-10-13T12:35:48;7.50;;;4.93;;
6300;SDS011;3183;51.010;6.898;2022-10-13T12:38:18;10.20;;;5.50;;
6300;SDS011;3183;51.010;6.898;2022-10-13T12:40:45;12.40;;;5.00;;
6300;SDS011;3183;51.010;6.898;2022-10-13T12:43:14;11.17;;;6.27;;
6300;SDS011;3183;51.010;6.898;2022-10-13T12:45:42;13.17;;;6.10;;
6300;SDS011;3183;51.010;6.898;2022-10-13T12:50:51;21.37;;;7.53;;
6300;SDS011;3183;51.010;6.898;2022-10-13T12:53:22;14.63;;;6.17;;
6300;SDS011;3183;51.010;6.898;2022-10-13T12:55:53;12.20;;;6.50;;
6300;SDS011;3183;51.010;6.898;2022-10-13T12:58:23;16.87;;;6.70;;
6300;SDS011;3183;51.010;6.898;2022-10-13T13:00:55;12.80;;;5.50;;
6300;SDS011;3183;51.010;6.898;2022-10-13T13:03:24;18.53;;;6.17;;
6300;SDS011;3183;51.010;6.898;2022-10-13T13:06:05;18.60;;;6.10;;
6300;SDS011;3183;51.010;6.898;2022-10-13T13:08:34;14.17;;;5.47;;
6300;SDS011;3183;51.010;6.898;2022-10-13T13:11:01;9.20;;;5.80;;
6300;SDS011;3183;51.010;6.898;2022-10-13T13:13:29;10.60;;;6.10;;
6300;SDS011;3183;51.010;6.898;2022-10-13T13:16:11;7.60;;;5.17;;
6300;SDS011;3183;51.010;6.898;2022-10-13T13:18:38;12.30;;;5.80;;
6300;SDS011;3183;51.010;6.898;2022-10-13T13:21:06;11.60;;;8.13;;
6300;SDS011;3183;51.010;6.898;2022-10-13T13:23:35;11.50;;;4.97;;
6300;SDS011;3183;51.010;6.898;2022-10-13T13:26:05;11.93;;;6.43;;
6300;SDS011;3183;51.010;6.898;2022-10-13T13:28:36;16.63;;;5.23;;
6300;SDS011;3183;51.010;6.898;2022-10-13T13:31:04;9.10;;;4.90;;
6300;SDS011;3183;51.010;6.898;2022-10-13T13:33:31;17.03;;;7.80;;
6300;SDS011;3183;51.010;6.898;2022-10-13T13:35:58;16.73;;;6.93;;
6300;SDS011;3183;51.010;6.898;2022-10-13T13:38:25;16.80;;;6.60;;
6300;SDS011;3183;51.010;6.898;2022-10-13T13:40:54;11.77;;;6.20;;
6300;SDS011;3183;51.010;6.898;2022-10-13T13:43:21;14.13;;;6.53;;
6300;SDS011;3183;51.010;6.898;2022-10-13T13:45:48;11.97;;;6.57;;
6300;SDS011;3183;51.010;6.898;2022-10-13T13:48:15;12.80;;;6.80;;
6300;SDS011;3183;51.010;6.898;2022-10-13T13:50:42;13.73;;;6.47;;
6300;SDS011;3183;51.010;6.898;2022-10-13T13:53:10;13.03;;;10.20;;
6300;SDS011;3183;51.010;6.898;2022-10-13T13:55:37;20.33;;;14.87;;
6300;SDS011;3183;51.010;6.898;2022-10-13T13:58:05;12.63;;;7.13;;
6300;SDS011;3183;51.010;6.898;2022-10-13T14:00:32;16.70;;;7.40;;
6300;SDS011;3183;51.010;6.898;2022-10-13T14:03:00;13.03;;;7.23;;
6300;SDS011;3183;51.010;6.898;2022-10-13T14:05:27;15.23;;;7.20;;
6300;SDS011;3183;51.010;6.898;2022-10-13T14:07:54;14.20;;;7.90;;
6300;SDS011;3183;51.010;6.898;2022-10-13T14:10:22;12.13;;;8.10;;
6300;SDS011;3183;51.010;6.898;2022-10-13T14:12:49;19.97;;;9.07;;
6300;SDS011;3183;51.010;6.898;2022-10-13T14:15:18;22.97;;;9.63;;
6300;SDS011;3183;51.010;6.898;2022-10-13T14:17:45;18.77;;;8.20;;
6300;SDS011;3183;51.010;6.898;2022-10-13T14:20:12;15.57;;;8.67;;
6300;SDS011;3183;51.010;6.898;2022-10-13T14:22:39;22.00;;;12.90;;
6300;SDS011;3183;51.010;6.898;2022-10-13T14:25:07;22.40;;;12.17;;
6300;SDS011;3183;51.010;6.898;2022-10-13T14:27:34;18.00;;;10.57;;
6300;SDS011;3183;51.010;6.898;2022-10-13T14:30:01;20.30;;;12.03;;
6300;SDS011;3183;51.010;6.898;2022-10-13T14:32:30;18.57;;;10.20;;
6300;SDS011;3183;51.010;6.898;2022-10-13T14:34:57;16.30;;;10.57;;
6300;SDS011;3183;51.010;6.898;2022-10-13T14:37:24;18.33;;;10.23;;
6300;SDS011;3183;51.010;6.898;2022-10-13T14:39:52;20.20;;;10.37;;
6300;SDS011;3183;51.010;6.898;2022-10-13T14:42:19;21.40;;;11.97;;
6300;SDS011;3183;51.010;6.898;2022-10-13T14:44:46;23.33;;;11.53;;
6300;SDS011;3183;51.010;6.898;2022-10-13T14:47:13;21.40;;;12.90;;
6300;SDS011;3183;51.010;6.898;2022-10-13T14:49:42;23.93;;;12.00;;
6300;SDS011;3183;51.010;6.898;2022-10-13T14:52:10;18.33;;;10.57;;
6300;SDS011;3183;51.010;6.898;2022-10-13T14:54:38;21.50;;;12.07;;
6300;SDS011;3183;51.010;6.898;2022-10-13T14:57:05;23.60;;;11.47;;
6300;SDS011;3183;51.010;6.898;2022-10-13T14:59:32;26.90;;;12.43;;
6300;SDS011;3183;51.010;6.898;2022-10-13T15:01:59;17.07;;;10.40;;
6300;SDS011;3183;51.010;6.898;2022-10-13T15:04:26;23.60;;;12.20;;
6300;SDS011;3183;51.010;6.898;2022-10-13T15:06:55;28.73;;;13.90;;
6300;SDS011;3183;51.010;6.898;2022-10-13T15:09:22;23.97;;;12.70;;